Time;durP1;ratioP1;P1;durP2;ratioP2;P2;SDS_P1;SDS_P2;PMS_P1;PMS_P2;Temp;Humidity;BMP_temperature;BMP_pressure;BME280_temperature;BME280_humidity;BME280_pressure;Samples;Min_cycle;Max_cycle;Signal;HPM_P1;HPM_P2
2022/12/29 00:00:22;;;;;;;4.93;2.60;;;3.60;99.90;;;;;;20864357;28;20026;-77
2022/12/29 00:10:23;;;;;;;3.60;2.28;;;3.70;99.90;;;;;;20864041;28;20034;-77
2022/12/29 00:51:23;;;;;;;4.00;2.55;;;4.00;99.90;;;;;;20904426;28;20081;-77
2022/12/29 01:01:24;;;;;;;6.47;3.00;;;4.20;99.90;;;;;;20921932;28;20029;-77
2022/12/29 01:11:24;;;;;;;4.78;2.70;;;4.20;99.90;;;;;;20921052;28;20087;-77
2022/12/29 01:21:25;;;;;;;5.55;3.13;;;4.20;99.90;;;;;;20916498;28;20068;-76
2022/12/29 01:31:26;;;;;;;6.35;3.58;;;4.30;99.90;;;;;;20913269;28;20507;-76
2022/12/29 01:41:28;;;;;;;5.68;3.13;;;4.20;99.90;;;;;;20914620;28;20029;-76
2022/12/29 01:51:33;;;;;;;5.55;3.53;;;4.10;99.90;;;;;;20928337;28;20392;-76
2022/12/29 02:01:34;;;;;;;8.45;3.28;;;4.10;99.90;;;;;;20983470;28;20398;-77
2022/12/29 02:11:36;;;;;;;6.05;2.70;;;4.10;99.90;;;;;;20978503;28;20563;-76
2022/12/29 02:22:14;;;;;;;4.47;2.60;;;4.20;99.90;;;;;;20931486;28;20025;-76
2022/12/29 02:32:24;;;;;;;9.40;3.28;;;4.20;99.90;;;;;;20637695;28;20055;-76
2022/12/29 02:42:39;;;;;;;6.65;3.22;;;4.20;99.90;;;;;;20654688;28;20413;-76
2022/12/29 02:52:50;;;;;;;7.72;2.50;;;4.30;99.90;;;;;;20654601;28;20386;-76
2022/12/29 03:03:15;;;;;;;4.60;2.73;;;4.50;99.90;;;;;;20682476;28;20380;-76
2022/12/29 03:23:54;;;;;;;4.20;2.30;;;4.40;99.90;;;;;;20888777;28;20163;-76
2022/12/29 03:33:58;;;;;;;6.38;2.80;;;4.40;99.90;;;;;;20889410;28;20029;-76
2022/12/29 03:43:59;;;;;;;2.35;1.50;;;4.40;99.90;;;;;;20828910;28;20021;-76
2022/12/29 03:54:02;;;;;;;4.13;2.38;;;4.50;99.90;;;;;;20895791;28;20033;-76
2022/12/29 04:04:04;;;;;;;3.80;2.15;;;4.40;99.90;;;;;;20904500;28;20032;-76
2022/12/29 04:14:05;;;;;;;6.03;2.60;;;4.40;99.90;;;;;;20870760;28;20040;-76
2022/12/29 04:24:08;;;;;;;3.03;2.30;;;4.60;99.90;;;;;;20915874;22;20100;-79
2022/12/29 04:34:14;;;;;;;4.03;2.25;;;4.80;99.90;;;;;;21023047;28;20119;-81
2022/12/29 04:44:16;;;;;;;4.03;2.55;;;5.10;99.90;;;;;;21049048;28;20447;-81
2022/12/29 04:54:40;;;;;;;4.47;2.80;;;5.00;99.90;;;;;;20729590;28;20101;-80
2022/12/29 05:04:50;;;;;;;3.23;2.40;;;4.70;99.90;;;;;;20708462;28;20479;-80
2022/12/29 05:14:52;;;;;;;4.80;2.60;;;4.70;99.90;;;;;;20720239;28;20098;-80
2022/12/29 05:24:54;;;;;;;5.07;3.05;;;4.90;99.90;;;;;;20774115;28;20041;-80
2022/12/29 05:34:56;;;;;;;6.32;3.00;;;4.90;99.90;;;;;;20960410;28;20593;-81
2022/12/29 05:44:59;;;;;;;9.07;3.20;;;4.80;99.90;;;;;;20949103;28;20025;-81
2022/12/29 05:55:20;;;;;;;3.78;1.88;;;4.60;99.90;;;;;;21012398;28;20529;-80
2022/12/29 06:05:23;;;;;;;9.55;1.95;;;4.70;99.90;;;;;;21002763;28;20032;-80
2022/12/29 06:15:25;;;;;;;7.00;2.80;;;5.00;99.90;;;;;;21008561;28;20037;-80
2022/12/29 06:25:30;;;;;;;5.15;3.05;;;5.00;99.90;;;;;;21029864;28;20047;-81
2022/12/29 06:35:31;;;;;;;4.72;2.13;;;5.20;99.90;;;;;;21016213;28;20032;-80
2022/12/29 06:45:34;;;;;;;6.80;2.63;;;5.60;99.90;;;;;;21019010;28;20094;-80
2022/12/29 06:55:35;;;;;;;4.47;2.00;;;5.90;99.90;;;;;;21021326;28;20024;-81
2022/12/29 07:05:35;;;;;;;;;;;6.30;99.90;;;;;;21022396;28;20046;-81
2022/12/29 07:15:37;;;;;;;4.57;1.90;;;7.30;99.90;;;;;;21003014;28;20401;-80
2022/12/29 07:25:41;;;;;;;6.80;1.90;;;7.60;99.90;;;;;;20998492;28;20271;-81
2022/12/29 07:35:43;;;;;;;3.90;1.55;;;7.90;99.90;;;;;;20992386;28;20398;-80
2022/12/29 07:45:44;;;;;;;2.83;1.80;;;8.70;99.90;;;;;;21020946;28;20139;-80
2022/12/29 07:55:45;;;;;;;;;;;8.70;99.90;;;;;;21013632;28;20029;-81
2022/12/29 08:05:46;;;;;;;2.15;1.30;;;9.10;99.90;;;;;;20994442;28;19912;-82
2022/12/29 08:15:47;;;;;;;2.00;1.20;;;10.00;99.90;;;;;;21017090;28;20029;-82
2022/12/29 08:25:57;;;;;;;3.77;1.20;;;10.80;99.90;;;;;;20996203;28;20048;-81
2022/12/29 08:36:00;;;;;;;6.65;1.60;;;11.00;99.90;;;;;;21009371;28;20475;-83
2022/12/29 08:46:01;;;;;;;3.63;0.95;;;11.90;99.90;;;;;;21048510;28;20036;-80
2022/12/29 08:56:03;;;;;;;5.30;1.10;;;13.10;99.90;;;;;;21057690;28;20031;-79
2022/12/29 09:06:06;;;;;;;5.82;2.55;;;13.60;99.90;;;;;;20982302;28;20112;-79
2022/12/29 09:16:07;;;;;;;4.38;1.15;;;12.80;99.90;;;;;;20956669;28;20037;-78
2022/12/29 09:26:09;;;;;;;3.00;1.70;;;12.60;99.90;;;;;;21029393;28;20032;-79
2022/12/29 09:36:10;;;;;;;2.65;1.15;;;12.60;99.90;;;;;;21028256;28;20448;-79
2022/12/29 09:46:34;;;;;;;4.40;1.10;;;12.60;99.90;;;;;;21031146;28;20028;-80
2022/12/29 09:56:37;;;;;;;4.35;0.93;;;12.50;99.90;;;;;;21047021;28;20079;-80
2022/12/29 10:06:56;;;;;;;4.75;1.48;;;12.70;99.90;;;;;;21035220;28;20032;-80
2022/12/29 10:17:02;;;;;;;3.30;1.10;;;12.60;99.90;;;;;;21052236;28;20070;-79
2022/12/29 10:27:05;;;;;;;4.65;1.00;;;12.70;99.90;;;;;;21026992;22;20033;-77
2022/12/29 10:37:32;;;;;;;3.97;0.82;;;12.50;99.90;;;;;;20983803;28;20029;-77
2022/12/29 10:47:47;;;;;;;8.13;1.52;;;12.70;99.90;;;;;;20631746;28;20404;-77
2022/12/29 10:57:51;;;;;;;7.38;1.00;;;12.80;99.90;;;;;;20611073;28;20039;-77
2022/12/29 11:07:56;;;;;;;1.58;0.65;;;13.00;99.90;;;;;;20582716;28;20126;-77
2022/12/29 11:17:59;;;;;;;3.47;1.10;;;13.10;99.90;;;;;;20647299;28;20041;-76
2022/12/29 11:28:26;;;;;;;1.80;0.70;;;13.00;99.90;;;;;;20906405;28;20065;-77
2022/12/29 11:38:35;;;;;;;1.38;0.60;;;13.00;99.90;;;;;;20907199;28;20082;-77
2022/12/29 11:48:41;;;;;;;3.38;0.75;;;12.90;99.90;;;;;;20906877;28;20040;-76
2022/12/29 11:58:42;;;;;;;3.03;0.70;;;12.80;99.90;;;;;;20906517;28;20043;-77
2022/12/29 12:08:57;;;;;;;;;;;12.70;99.90;;;;;;20907348;28;20116;-77
2022/12/29 12:19:12;;;;;;;8.43;1.77;;;12.90;99.90;;;;;;20919021;28;19917;-76
2022/12/29 12:29:19;;;;;;;2.22;0.60;;;13.00;99.90;;;;;;20921217;28;20102;-77
2022/12/29 12:39:26;;;;;;;2.55;0.80;;;13.00;99.90;;;;;;20920349;28;20116;-77
2022/12/29 12:50:02;;;;;;;5.07;1.25;;;13.00;99.90;;;;;;20914903;28;20041;-77
2022/12/29 13:00:17;;;;;;;1.02;0.60;;;12.90;99.90;;;;;;20958044;28;20056;-77
2022/12/29 13:10:52;;;;;;;1.52;0.80;;;12.90;99.90;;;;;;20965014;28;20037;-77
2022/12/29 13:21:26;;;;;;;2.47;0.82;;;13.00;99.90;;;;;;20919461;28;20074;-77
2022/12/29 13:31:50;;;;;;;4.90;0.88;;;13.10;99.90;;;;;;20947193;28;20037;-77
2022/12/29 13:41:54;;;;;;;4.82;0.98;;;13.10;99.90;;;;;;20946136;28;20603;-76
2022/12/29 13:51:58;;;;;;;1.10;0.80;;;12.90;99.90;;;;;;20884952;28;20028;-75
2022/12/29 14:02:08;;;;;;;2.00;0.85;;;13.00;99.90;;;;;;20873382;28;20550;-76
2022/12/29 14:12:39;;;;;;;1.85;1.15;;;12.90;99.90;;;;;;20869147;28;20247;-76
2022/12/29 14:22:58;;;;;;;2.50;1.20;;;12.90;99.90;;;;;;20866185;28;20041;-77
2022/12/29 14:33:11;;;;;;;2.65;0.40;;;12.80;99.90;;;;;;20776897;28;20037;-77
2022/12/29 14:43:25;;;;;;;5.97;1.63;;;12.80;99.90;;;;;;20789161;28;20037;-78
2022/12/29 14:53:48;;;;;;;4.22;1.10;;;12.60;99.90;;;;;;20823335;28;20098;-77
2022/12/29 15:03:53;;;;;;;1.88;0.85;;;12.60;99.90;;;;;;20883182;28;20044;-76
2022/12/29 15:13:54;;;;;;;1.33;0.68;;;12.30;99.90;;;;;;20863118;28;20056;-77
2022/12/29 15:23:54;;;;;;;1.17;0.70;;;12.10;99.90;;;;;;20866238;28;20025;-77
2022/12/29 15:34:12;;;;;;;3.43;1.00;;;11.80;99.90;;;;;;20876618;28;20056;-76
2022/12/29 15:44:23;;;;;;;1.65;0.80;;;11.50;99.90;;;;;;20887383;28;20034;-76
2022/12/29 15:54:29;;;;;;;2.43;1.10;;;11.20;99.90;;;;;;20913935;28;20090;-77
2022/12/29 16:04:35;;;;;;;2.45;1.05;;;11.30;99.90;;;;;;20920428;28;20047;-77
2022/12/29 16:15:05;;;;;;;2.35;0.90;;;10.90;99.90;;;;;;20927113;28;20116;-76
2022/12/29 16:25:13;;;;;;;6.28;1.27;;;10.80;99.90;;;;;;20946056;28;20465;-77
2022/12/29 16:35:23;;;;;;;3.20;1.00;;;10.50;99.90;;;;;;20956481;28;20036;-76
2022/12/29 16:45:47;;;;;;;5.30;1.70;;;10.40;99.90;;;;;;20978275;22;20049;-81
2022/12/29 16:55:50;;;;;;;2.70;1.40;;;10.40;99.90;;;;;;21012402;28;20024;-82
2022/12/29 17:05:52;;;;;;;2.45;1.27;;;10.40;99.90;;;;;;20885424;28;20475;-80
2022/12/29 17:15:54;;;;;;;1.90;1.13;;;10.40;99.90;;;;;;20867854;28;20502;-78
2022/12/29 17:25:56;;;;;;;2.03;1.23;;;10.20;99.90;;;;;;20873593;28;20132;-79
2022/12/29 17:35:57;;;;;;;2.40;1.40;;;10.20;99.90;;;;;;21013323;28;20094;-81
2022/12/29 17:45:58;;;;;;;2.30;1.43;;;10.00;99.90;;;;;;20911687;28;20037;-81
2022/12/29 17:56:04;;;;;;;2.15;1.40;;;9.90;99.90;;;;;;20888129;28;20055;-80
2022/12/29 18:06:07;;;;;;;4.15;1.42;;;9.70;99.90;;;;;;20890368;28;20060;-80
2022/12/29 18:16:11;;;;;;;3.05;1.67;;;9.70;99.90;;;;;;21028626;28;20040;-79
2022/12/29 18:26:27;;;;;;;3.30;1.40;;;10.00;99.90;;;;;;21018718;28;20410;-81
2022/12/29 18:36:30;;;;;;;5.55;1.52;;;10.00;99.90;;;;;;20990076;28;20032;-80
2022/12/29 18:46:31;;;;;;;4.88;2.35;;;9.90;99.90;;;;;;21024292;28;20040;-79
2022/12/29 18:56:31;;;;;;;6.17;2.17;;;9.70;99.90;;;;;;21007356;28;20036;-80
2022/12/29 19:06:33;;;;;;;3.50;1.40;;;9.50;99.90;;;;;;20981260;28;20032;-80
2022/12/29 19:16:33;;;;;;;2.45;1.48;;;9.30;99.90;;;;;;21011593;28;20058;-80
2022/12/29 19:26:37;;;;;;;2.70;1.60;;;9.10;99.90;;;;;;21020341;28;20029;-80
2022/12/29 19:36:37;;;;;;;4.78;1.80;;;9.10;99.90;;;;;;21022266;28;20078;-80
2022/12/29 19:46:38;;;;;;;3.40;1.80;;;8.80;99.90;;;;;;21018727;28;20111;-80
2022/12/29 19:56:43;;;;;;;3.28;1.90;;;8.90;99.90;;;;;;20995418;28;20040;-81
2022/12/29 20:06:43;;;;;;;5.80;2.00;;;8.90;99.90;;;;;;21019505;28;20158;-79
2022/12/29 20:16:45;;;;;;;;;;;8.60;99.90;;;;;;21015135;28;20024;-80
2022/12/29 20:26:47;;;;;;;7.97;2.53;;;8.60;99.90;;;;;;21013057;28;19952;-81
2022/12/29 20:36:52;;;;;;;3.70;2.20;;;8.60;99.90;;;;;;21050046;28;20057;-79
2022/12/29 20:46:54;;;;;;;5.32;2.80;;;8.70;99.90;;;;;;21024179;28;20482;-80
2022/12/29 20:56:55;;;;;;;6.65;2.83;;;8.70;99.90;;;;;;21000180;28;20035;-81
2022/12/29 21:06:57;;;;;;;16.92;6.82;;;8.60;99.90;;;;;;21042121;28;20050;-82
2022/12/29 21:16:58;;;;;;;12.35;6.25;;;8.60;99.90;;;;;;21030601;28;20072;-81
2022/12/29 21:26:58;;;;;;;8.07;5.07;;;8.50;99.90;;;;;;21048170;28;20070;-81
2022/12/29 21:36:59;;;;;;;9.70;4.63;;;8.40;99.90;;;;;;21041916;28;20028;-80
2022/12/29 21:47:00;;;;;;;7.70;4.40;;;8.30;99.90;;;;;;20973011;28;20028;-81
2022/12/29 21:57:02;;;;;;;7.70;3.70;;;8.30;99.90;;;;;;21006172;28;20531;-81
2022/12/29 22:17:22;;;;;;;0.75;0.50;;;8.20;99.90;;;;;;21007431;28;19935;-82
2022/12/29 22:27:23;;;;;;;2.33;0.50;;;7.90;99.90;;;;;;20971206;28;20040;-80
2022/12/29 22:37:24;;;;;;;0.87;0.53;;;7.90;99.90;;;;;;20997751;28;20040;-81
2022/12/29 22:47:26;;;;;;;0.45;0.40;;;7.70;99.90;;;;;;21034514;22;20051;-77
2022/12/29 22:57:29;;;;;;;1.50;0.45;;;7.60;99.90;;;;;;21059100;28;20040;-77
2022/12/29 23:07:32;;;;;;;1.10;0.80;;;7.50;99.90;;;;;;21079085;28;20048;-78
2022/12/29 23:17:34;;;;;;;1.77;1.15;;;7.40;99.90;;;;;;21018958;28;20036;-77
2022/12/29 23:27:35;;;;;;;1.77;0.95;;;7.30;99.90;;;;;;20956452;28;20074;-78
2022/12/29 23:37:36;;;;;;;0.50;0.50;;;7.30;99.90;;;;;;20941016;28;20052;-77
2022/12/29 23:47:37;;;;;;;;;;;7.20;99.90;;;;;;20941345;28;20036;-77
2022/12/29 23:57:38;;;;;;;3.70;1.00;;;7.10;99.90;;;;;;20946764;28;19916;-77
